sensor_id;sensor_type;location;lat;lon;timestamp;P1;durP1;ratioP1;P2;durP2;ratioP2
76119;SDS011;64852;48.092;-1.640;2022-12-29T00:01:53;24.83;;;23.03;;
76119;SDS011;64852;48.092;-1.640;2022-12-29T00:04:20;28.20;;;24.65;;
76119;SDS011;64852;48.092;-1.640;2022-12-29T00:06:46;26.25;;;24.00;;
76119;SDS011;64852;48.092;-1.640;2022-12-29T00:09:12;25.95;;;24.05;;
76119;SDS011;64852;48.092;-1.640;2022-12-29T00:11:39;25.52;;;23.67;;
76119;SDS011;64852;48.092;-1.640;2022-12-29T00:14:04;25.98;;;24.08;;
76119;SDS011;64852;48.092;-1.640;2022-12-29T00:16:49;26.85;;;24.75;;
76119;SDS011;64852;48.092;-1.640;2022-12-29T00:19:15;28.40;;;24.77;;
76119;SDS011;64852;48.092;-1.640;2022-12-29T00:21:59;26.92;;;24.73;;
76119;SDS011;64852;48.092;-1.640;2022-12-29T00:24:44;26.58;;;24.67;;
76119;SDS011;64852;48.092;-1.640;2022-12-29T00:27:28;28.80;;;25.83;;
76119;SDS011;64852;48.092;-1.640;2022-12-29T00:30:17;28.33;;;25.42;;
76119;SDS011;64852;48.092;-1.640;2022-12-29T00:35:59;25.20;;;23.38;;
76119;SDS011;64852;48.092;-1.640;2022-12-29T00:38:25;27.10;;;24.70;;
76119;SDS011;64852;48.092;-1.640;2022-12-29T00:41:10;29.08;;;26.60;;
76119;SDS011;64852;48.092;-1.640;2022-12-29T00:43:54;28.45;;;26.27;;
76119;SDS011;64852;48.092;-1.640;2022-12-29T00:46:35;28.85;;;26.75;;
76119;SDS011;64852;48.092;-1.640;2022-12-29T00:49:03;28.20;;;26.20;;
76119;SDS011;64852;48.092;-1.640;2022-12-29T00:51:47;29.50;;;27.15;;
76119;SDS011;64852;48.092;-1.640;2022-12-29T00:54:13;30.10;;;27.90;;
76119;SDS011;64852;48.092;-1.640;2022-12-29T00:59:06;25.90;;;23.67;;
76119;SDS011;64852;48.092;-1.640;2022-12-29T01:01:34;25.77;;;23.73;;
76119;SDS011;64852;48.092;-1.640;2022-12-29T01:04:01;26.15;;;24.05;;
76119;SDS011;64852;48.092;-1.640;2022-12-29T01:06:27;25.90;;;24.10;;
76119;SDS011;64852;48.092;-1.640;2022-12-29T01:08:52;26.20;;;24.30;;
76119;SDS011;64852;48.092;-1.640;2022-12-29T01:11:37;25.67;;;23.50;;
76119;SDS011;64852;48.092;-1.640;2022-12-29T01:14:04;27.33;;;24.90;;
76119;SDS011;64852;48.092;-1.640;2022-12-29T01:16:30;26.73;;;24.65;;
76119;SDS011;64852;48.092;-1.640;2022-12-29T01:18:55;26.73;;;24.73;;
76119;SDS011;64852;48.092;-1.640;2022-12-29T01:21:21;25.90;;;24.02;;
76119;SDS011;64852;48.092;-1.640;2022-12-29T01:23:47;26.03;;;24.13;;
76119;SDS011;64852;48.092;-1.640;2022-12-29T01:26:13;25.08;;;23.27;;
76119;SDS011;64852;48.092;-1.640;2022-12-29T01:28:40;25.83;;;24.00;;
76119;SDS011;64852;48.092;-1.640;2022-12-29T01:31:07;27.35;;;25.13;;
76119;SDS011;64852;48.092;-1.640;2022-12-29T01:33:33;25.17;;;23.38;;
76119;SDS011;64852;48.092;-1.640;2022-12-29T01:36:00;25.80;;;24.00;;
76119;SDS011;64852;48.092;-1.640;2022-12-29T01:38:26;25.17;;;23.25;;
76119;SDS011;64852;48.092;-1.640;2022-12-29T01:40:52;27.15;;;25.15;;
76119;SDS011;64852;48.092;-1.640;2022-12-29T01:43:17;25.20;;;23.50;;
76119;SDS011;64852;48.092;-1.640;2022-12-29T01:45:50;26.47;;;24.67;;
76119;SDS011;64852;48.092;-1.640;2022-12-29T01:48:18;26.98;;;24.45;;
76119;SDS011;64852;48.092;-1.640;2022-12-29T01:50:50;25.02;;;23.35;;
76119;SDS011;64852;48.092;-1.640;2022-12-29T01:53:19;24.90;;;23.20;;
76119;SDS011;64852;48.092;-1.640;2022-12-29T01:55:50;24.50;;;22.98;;
76119;SDS011;64852;48.092;-1.640;2022-12-29T01:58:19;25.90;;;23.98;;
76119;SDS011;64852;48.092;-1.640;2022-12-29T02:00:47;25.15;;;23.10;;
76119;SDS011;64852;48.092;-1.640;2022-12-29T02:03:13;23.97;;;22.37;;
76119;SDS011;64852;48.092;-1.640;2022-12-29T02:08:28;24.65;;;23.15;;
76119;SDS011;64852;48.092;-1.640;2022-12-29T02:10:58;23.67;;;22.17;;
76119;SDS011;64852;48.092;-1.640;2022-12-29T02:13:25;23.27;;;21.75;;
76119;SDS011;64852;48.092;-1.640;2022-12-29T02:15:56;26.42;;;24.08;;
76119;SDS011;64852;48.092;-1.640;2022-12-29T02:18:36;25.60;;;23.90;;
76119;SDS011;64852;48.092;-1.640;2022-12-29T02:21:19;25.52;;;23.83;;
76119;SDS011;64852;48.092;-1.640;2022-12-29T02:32:39;23.30;;;21.80;;
76119;SDS011;64852;48.092;-1.640;2022-12-29T02:41:42;25.92;;;23.48;;
76119;SDS011;64852;48.092;-1.640;2022-12-29T02:44:42;25.27;;;23.67;;
76119;SDS011;64852;48.092;-1.640;2022-12-29T02:50:27;24.98;;;23.33;;
76119;SDS011;64852;48.092;-1.640;2022-12-29T02:53:02;24.17;;;22.67;;
76119;SDS011;64852;48.092;-1.640;2022-12-29T02:55:31;25.55;;;23.60;;
76119;SDS011;64852;48.092;-1.640;2022-12-29T03:00:48;24.70;;;23.13;;
76119;SDS011;64852;48.092;-1.640;2022-12-29T03:03:45;23.60;;;22.10;;
76119;SDS011;64852;48.092;-1.640;2022-12-29T03:15:21;25.35;;;23.65;;
76119;SDS011;64852;48.092;-1.640;2022-12-29T03:18:21;23.83;;;22.33;;
76119;SDS011;64852;48.092;-1.640;2022-12-29T03:20:54;24.33;;;22.83;;
76119;SDS011;64852;48.092;-1.640;2022-12-29T03:23:25;24.30;;;22.63;;
76119;SDS011;64852;48.092;-1.640;2022-12-29T03:25:57;24.05;;;22.55;;
76119;SDS011;64852;48.092;-1.640;2022-12-29T03:28:30;27.60;;;24.83;;
76119;SDS011;64852;48.092;-1.640;2022-12-29T03:31:00;25.70;;;23.48;;
76119;SDS011;64852;48.092;-1.640;2022-12-29T03:33:28;24.95;;;23.38;;
76119;SDS011;64852;48.092;-1.640;2022-12-29T03:35:58;25.63;;;23.70;;
76119;SDS011;64852;48.092;-1.640;2022-12-29T03:38:38;23.33;;;21.88;;
76119;SDS011;64852;48.092;-1.640;2022-12-29T03:41:11;23.33;;;21.85;;
76119;SDS011;64852;48.092;-1.640;2022-12-29T03:43:45;23.55;;;22.15;;
76119;SDS011;64852;48.092;-1.640;2022-12-29T03:46:11;24.95;;;23.35;;
76119;SDS011;64852;48.092;-1.640;2022-12-29T03:48:37;24.38;;;22.88;;
76119;SDS011;64852;48.092;-1.640;2022-12-29T03:51:03;26.77;;;24.40;;
76119;SDS011;64852;48.092;-1.640;2022-12-29T03:53:28;24.63;;;23.02;;
76119;SDS011;64852;48.092;-1.640;2022-12-29T03:55:54;27.53;;;25.63;;
76119;SDS011;64852;48.092;-1.640;2022-12-29T03:58:20;27.60;;;25.33;;
76119;SDS011;64852;48.092;-1.640;2022-12-29T04:00:45;25.88;;;24.27;;
76119;SDS011;64852;48.092;-1.640;2022-12-29T04:03:11;26.10;;;24.50;;
76119;SDS011;64852;48.092;-1.640;2022-12-29T04:05:37;26.93;;;25.23;;
76119;SDS011;64852;48.092;-1.640;2022-12-29T04:08:02;27.07;;;25.27;;
76119;SDS011;64852;48.092;-1.640;2022-12-29T04:10:28;23.57;;;22.07;;
76119;SDS011;64852;48.092;-1.640;2022-12-29T04:12:53;26.73;;;24.57;;
76119;SDS011;64852;48.092;-1.640;2022-12-29T04:15:19;24.10;;;22.57;;
76119;SDS011;64852;48.092;-1.640;2022-12-29T04:17:45;26.50;;;24.57;;
76119;SDS011;64852;48.092;-1.640;2022-12-29T04:20:10;23.80;;;22.27;;
76119;SDS011;64852;48.092;-1.640;2022-12-29T04:23:01;27.40;;;24.50;;
76119;SDS011;64852;48.092;-1.640;2022-12-29T04:25:30;24.67;;;23.05;;
76119;SDS011;64852;48.092;-1.640;2022-12-29T04:27:57;24.88;;;23.23;;
76119;SDS011;64852;48.092;-1.640;2022-12-29T04:30:24;23.88;;;22.38;;
76119;SDS011;64852;48.092;-1.640;2022-12-29T04:32:49;24.35;;;22.75;;
76119;SDS011;64852;48.092;-1.640;2022-12-29T04:35:15;24.93;;;23.33;;
76119;SDS011;64852;48.092;-1.640;2022-12-29T04:37:41;26.73;;;23.93;;
76119;SDS011;64852;48.092;-1.640;2022-12-29T04:40:06;26.23;;;24.43;;
76119;SDS011;64852;48.092;-1.640;2022-12-29T04:42:33;26.80;;;24.73;;
76119;SDS011;64852;48.092;-1.640;2022-12-29T04:44:58;25.13;;;23.33;;
76119;SDS011;64852;48.092;-1.640;2022-12-29T04:47:24;25.90;;;24.10;;
76119;SDS011;64852;48.092;-1.640;2022-12-29T04:49:50;23.38;;;21.88;;
76119;SDS011;64852;48.092;-1.640;2022-12-29T04:52:15;27.90;;;24.97;;
76119;SDS011;64852;48.092;-1.640;2022-12-29T04:54:41;26.80;;;24.90;;
76119;SDS011;64852;48.092;-1.640;2022-12-29T04:57:06;25.00;;;23.30;;
76119;SDS011;64852;48.092;-1.640;2022-12-29T04:59:32;27.40;;;25.40;;
76119;SDS011;64852;48.092;-1.640;2022-12-29T05:01:58;27.73;;;25.73;;
76119;SDS011;64852;48.092;-1.640;2022-12-29T05:04:23;26.20;;;24.50;;
76119;SDS011;64852;48.092;-1.640;2022-12-29T05:06:49;25.83;;;24.17;;
76119;SDS011;64852;48.092;-1.640;2022-12-29T05:09:15;28.53;;;25.93;;
76119;SDS011;64852;48.092;-1.640;2022-12-29T05:11:40;27.60;;;25.25;;
76119;SDS011;64852;48.092;-1.640;2022-12-29T05:14:06;26.60;;;24.90;;
76119;SDS011;64852;48.092;-1.640;2022-12-29T05:16:32;27.77;;;25.73;;
76119;SDS011;64852;48.092;-1.640;2022-12-29T05:18:57;26.97;;;25.27;;
76119;SDS011;64852;48.092;-1.640;2022-12-29T05:21:23;24.80;;;23.20;;
76119;SDS011;64852;48.092;-1.640;2022-12-29T05:23:48;24.43;;;22.83;;
76119;SDS011;64852;48.092;-1.640;2022-12-29T05:26:14;24.83;;;23.23;;
76119;SDS011;64852;48.092;-1.640;2022-12-29T05:28:40;24.98;;;23.05;;
76119;SDS011;64852;48.092;-1.640;2022-12-29T05:31:05;26.13;;;24.13;;
76119;SDS011;64852;48.092;-1.640;2022-12-29T05:33:31;26.67;;;24.77;;
76119;SDS011;64852;48.092;-1.640;2022-12-29T05:35:57;24.33;;;22.75;;
76119;SDS011;64852;48.092;-1.640;2022-12-29T05:38:28;24.45;;;22.63;;
76119;SDS011;64852;48.092;-1.640;2022-12-29T05:40:53;25.93;;;23.50;;
76119;SDS011;64852;48.092;-1.640;2022-12-29T05:43:19;26.00;;;24.00;;
76119;SDS011;64852;48.092;-1.640;2022-12-29T05:45:47;26.53;;;24.53;;
76119;SDS011;64852;48.092;-1.640;2022-12-29T05:48:13;25.92;;;24.02;;
76119;SDS011;64852;48.092;-1.640;2022-12-29T05:50:39;25.37;;;23.77;;
76119;SDS011;64852;48.092;-1.640;2022-12-29T05:53:05;25.50;;;23.83;;
76119;SDS011;64852;48.092;-1.640;2022-12-29T05:55:30;26.33;;;24.57;;
76119;SDS011;64852;48.092;-1.640;2022-12-29T05:57:56;26.30;;;24.57;;
76119;SDS011;64852;48.092;-1.640;2022-12-29T06:00:22;26.05;;;24.45;;
76119;SDS011;64852;48.092;-1.640;2022-12-29T06:02:47;23.97;;;22.47;;
76119;SDS011;64852;48.092;-1.640;2022-12-29T06:05:13;23.47;;;22.07;;
76119;SDS011;64852;48.092;-1.640;2022-12-29T06:07:39;54.47;;;26.00;;
76119;SDS011;64852;48.092;-1.640;2022-12-29T06:10:05;24.27;;;22.77;;
76119;SDS011;64852;48.092;-1.640;2022-12-29T06:14:56;24.73;;;23.02;;
76119;SDS011;64852;48.092;-1.640;2022-12-29T06:17:22;23.80;;;22.30;;
76119;SDS011;64852;48.092;-1.640;2022-12-29T06:19:48;24.83;;;23.23;;
76119;SDS011;64852;48.092;-1.640;2022-12-29T06:22:13;22.53;;;21.13;;
76119;SDS011;64852;48.092;-1.640;2022-12-29T06:24:39;25.50;;;23.83;;
76119;SDS011;64852;48.092;-1.640;2022-12-29T06:27:05;24.42;;;22.88;;
76119;SDS011;64852;48.092;-1.640;2022-12-29T06:29:30;24.73;;;23.13;;
76119;SDS011;64852;48.092;-1.640;2022-12-29T06:31:56;24.55;;;22.92;;
76119;SDS011;64852;48.092;-1.640;2022-12-29T06:36:49;25.38;;;23.25;;
76119;SDS011;64852;48.092;-1.640;2022-12-29T06:39:15;23.77;;;22.38;;
76119;SDS011;64852;48.092;-1.640;2022-12-29T06:41:40;24.90;;;23.40;;
76119;SDS011;64852;48.092;-1.640;2022-12-29T06:44:06;26.47;;;24.67;;
76119;SDS011;64852;48.092;-1.640;2022-12-29T06:46:32;25.73;;;23.90;;
76119;SDS011;64852;48.092;-1.640;2022-12-29T06:48:57;24.77;;;23.17;;
76119;SDS011;64852;48.092;-1.640;2022-12-29T06:51:23;25.30;;;23.60;;
76119;SDS011;64852;48.092;-1.640;2022-12-29T06:53:49;25.60;;;23.73;;
76119;SDS011;64852;48.092;-1.640;2022-12-29T06:56:14;24.25;;;22.75;;
76119;SDS011;64852;48.092;-1.640;2022-12-29T06:58:40;27.27;;;25.27;;
76119;SDS011;64852;48.092;-1.640;2022-12-29T07:01:05;25.73;;;24.03;;
76119;SDS011;64852;48.092;-1.640;2022-12-29T07:03:31;26.33;;;24.58;;
76119;SDS011;64852;48.092;-1.640;2022-12-29T07:05:57;30.55;;;24.73;;
76119;SDS011;64852;48.092;-1.640;2022-12-29T07:08:23;28.17;;;26.27;;
76119;SDS011;64852;48.092;-1.640;2022-12-29T07:10:49;26.77;;;24.95;;
76119;SDS011;64852;48.092;-1.640;2022-12-29T07:13:15;28.60;;;26.60;;
76119;SDS011;64852;48.092;-1.640;2022-12-29T07:15:40;26.07;;;24.27;;
76119;SDS011;64852;48.092;-1.640;2022-12-29T07:18:06;27.03;;;24.30;;
76119;SDS011;64852;48.092;-1.640;2022-12-29T07:20:32;25.67;;;23.87;;
76119;SDS011;64852;48.092;-1.640;2022-12-29T07:22:57;28.33;;;26.17;;
76119;SDS011;64852;48.092;-1.640;2022-12-29T07:25:23;26.43;;;24.63;;
76119;SDS011;64852;48.092;-1.640;2022-12-29T07:27:49;25.83;;;24.13;;
76119;SDS011;64852;48.092;-1.640;2022-12-29T07:30:15;25.63;;;23.90;;
76119;SDS011;64852;48.092;-1.640;2022-12-29T07:32:41;27.52;;;24.95;;
76119;SDS011;64852;48.092;-1.640;2022-12-29T07:35:06;25.75;;;24.05;;
76119;SDS011;64852;48.092;-1.640;2022-12-29T07:37:33;27.73;;;25.50;;
76119;SDS011;64852;48.092;-1.640;2022-12-29T07:39:59;28.73;;;26.40;;
76119;SDS011;64852;48.092;-1.640;2022-12-29T07:44:51;26.48;;;24.77;;
76119;SDS011;64852;48.092;-1.640;2022-12-29T07:47:17;28.13;;;25.58;;
76119;SDS011;64852;48.092;-1.640;2022-12-29T07:49:43;27.52;;;25.52;;
76119;SDS011;64852;48.092;-1.640;2022-12-29T07:52:08;26.73;;;24.83;;
76119;SDS011;64852;48.092;-1.640;2022-12-29T07:54:34;26.77;;;24.90;;
76119;SDS011;64852;48.092;-1.640;2022-12-29T07:57:00;27.23;;;25.43;;
76119;SDS011;64852;48.092;-1.640;2022-12-29T07:59:25;33.77;;;31.53;;
76119;SDS011;64852;48.092;-1.640;2022-12-29T08:01:51;28.75;;;26.75;;
76119;SDS011;64852;48.092;-1.640;2022-12-29T08:04:17;27.67;;;25.77;;
76119;SDS011;64852;48.092;-1.640;2022-12-29T08:06:43;25.45;;;23.85;;
76119;SDS011;64852;48.092;-1.640;2022-12-29T08:09:10;26.45;;;24.20;;
76119;SDS011;64852;48.092;-1.640;2022-12-29T08:11:36;27.42;;;25.52;;
76119;SDS011;64852;48.092;-1.640;2022-12-29T08:14:01;26.90;;;25.10;;
76119;SDS011;64852;48.092;-1.640;2022-12-29T08:16:28;27.05;;;24.85;;
76119;SDS011;64852;48.092;-1.640;2022-12-29T08:18:53;26.77;;;24.70;;
76119;SDS011;64852;48.092;-1.640;2022-12-29T08:21:19;27.23;;;25.53;;
76119;SDS011;64852;48.092;-1.640;2022-12-29T08:23:44;26.88;;;24.85;;
76119;SDS011;64852;48.092;-1.640;2022-12-29T08:26:10;25.00;;;23.40;;
76119;SDS011;64852;48.092;-1.640;2022-12-29T08:28:36;27.38;;;25.45;;
76119;SDS011;64852;48.092;-1.640;2022-12-29T08:31:02;25.53;;;23.90;;
76119;SDS011;64852;48.092;-1.640;2022-12-29T08:33:28;27.80;;;25.48;;
76119;SDS011;64852;48.092;-1.640;2022-12-29T08:36:04;26.13;;;24.38;;
76119;SDS011;64852;48.092;-1.640;2022-12-29T08:38:31;26.55;;;24.70;;
76119;SDS011;64852;48.092;-1.640;2022-12-29T08:40:57;28.15;;;24.60;;
76119;SDS011;64852;48.092;-1.640;2022-12-29T08:43:23;30.58;;;23.85;;
76119;SDS011;64852;48.092;-1.640;2022-12-29T08:45:49;24.20;;;22.70;;
76119;SDS011;64852;48.092;-1.640;2022-12-29T08:48:15;32.50;;;24.35;;
76119;SDS011;64852;48.092;-1.640;2022-12-29T08:50:44;26.25;;;24.55;;
76119;SDS011;64852;48.092;-1.640;2022-12-29T08:53:11;36.75;;;24.70;;
76119;SDS011;64852;48.092;-1.640;2022-12-29T08:55:37;25.15;;;23.55;;
76119;SDS011;64852;48.092;-1.640;2022-12-29T08:58:02;26.85;;;25.10;;
76119;SDS011;64852;48.092;-1.640;2022-12-29T09:00:28;26.60;;;24.80;;
76119;SDS011;64852;48.092;-1.640;2022-12-29T09:02:53;25.00;;;23.40;;
76119;SDS011;64852;48.092;-1.640;2022-12-29T09:05:19;25.43;;;23.83;;
76119;SDS011;64852;48.092;-1.640;2022-12-29T09:07:46;29.55;;;26.95;;
76119;SDS011;64852;48.092;-1.640;2022-12-29T09:10:12;28.42;;;26.30;;
76119;SDS011;64852;48.092;-1.640;2022-12-29T09:12:37;27.83;;;24.90;;
76119;SDS011;64852;48.092;-1.640;2022-12-29T09:15:03;26.10;;;24.20;;
76119;SDS011;64852;48.092;-1.640;2022-12-29T09:17:30;25.20;;;23.50;;
76119;SDS011;64852;48.092;-1.640;2022-12-29T09:20:11;24.17;;;22.67;;
76119;SDS011;64852;48.092;-1.640;2022-12-29T09:22:39;25.90;;;23.58;;
76119;SDS011;64852;48.092;-1.640;2022-12-29T09:25:05;26.25;;;24.45;;
76119;SDS011;64852;48.092;-1.640;2022-12-29T09:27:31;26.00;;;23.65;;
76119;SDS011;64852;48.092;-1.640;2022-12-29T09:29:57;26.13;;;24.23;;
76119;SDS011;64852;48.092;-1.640;2022-12-29T09:32:22;25.30;;;23.70;;
76119;SDS011;64852;48.092;-1.640;2022-12-29T09:34:48;26.65;;;24.88;;
76119;SDS011;64852;48.092;-1.640;2022-12-29T09:37:14;26.37;;;24.67;;
76119;SDS011;64852;48.092;-1.640;2022-12-29T09:39:40;25.30;;;23.70;;
76119;SDS011;64852;48.092;-1.640;2022-12-29T09:47:13;26.60;;;24.58;;
76119;SDS011;64852;48.092;-1.640;2022-12-29T09:49:44;26.38;;;24.23;;
76119;SDS011;64852;48.092;-1.640;2022-12-29T09:52:48;29.15;;;26.92;;
76119;SDS011;64852;48.092;-1.640;2022-12-29T09:55:13;26.67;;;24.63;;
76119;SDS011;64852;48.092;-1.640;2022-12-29T09:57:49;25.95;;;24.35;;
76119;SDS011;64852;48.092;-1.640;2022-12-29T10:00:18;25.30;;;23.50;;
76119;SDS011;64852;48.092;-1.640;2022-12-29T10:02:51;26.02;;;24.25;;
76119;SDS011;64852;48.092;-1.640;2022-12-29T10:19:34;24.48;;;22.85;;
76119;SDS011;64852;48.092;-1.640;2022-12-29T10:22:17;24.50;;;22.98;;
76119;SDS011;64852;48.092;-1.640;2022-12-29T10:24:51;25.23;;;23.58;;
76119;SDS011;64852;48.092;-1.640;2022-12-29T10:27:20;25.02;;;23.42;;
76119;SDS011;64852;48.092;-1.640;2022-12-29T10:29:51;25.67;;;23.98;;
76119;SDS011;64852;48.092;-1.640;2022-12-29T10:32:32;26.35;;;24.75;;
76119;SDS011;64852;48.092;-1.640;2022-12-29T10:35:20;25.27;;;23.75;;
76119;SDS011;64852;48.092;-1.640;2022-12-29T10:45:57;25.90;;;24.23;;
76119;SDS011;64852;48.092;-1.640;2022-12-29T10:48:33;27.30;;;25.60;;
76119;SDS011;64852;48.092;-1.640;2022-12-29T10:51:04;26.33;;;24.73;;
76119;SDS011;64852;48.092;-1.640;2022-12-29T10:56:14;26.13;;;24.25;;
76119;SDS011;64852;48.092;-1.640;2022-12-29T10:58:55;25.77;;;23.20;;
76119;SDS011;64852;48.092;-1.640;2022-12-29T11:01:25;24.15;;;22.65;;
76119;SDS011;64852;48.092;-1.640;2022-12-29T11:04:02;38.78;;;25.10;;
76119;SDS011;64852;48.092;-1.640;2022-12-29T11:06:35;24.35;;;22.92;;
76119;SDS011;64852;48.092;-1.640;2022-12-29T11:09:09;24.77;;;23.25;;
76119;SDS011;64852;48.092;-1.640;2022-12-29T11:11:40;23.08;;;21.70;;
76119;SDS011;64852;48.092;-1.640;2022-12-29T11:14:13;24.30;;;22.73;;
76119;SDS011;64852;48.092;-1.640;2022-12-29T11:16:42;24.40;;;22.75;;
76119;SDS011;64852;48.092;-1.640;2022-12-29T11:19:23;22.95;;;21.55;;
76119;SDS011;64852;48.092;-1.640;2022-12-29T11:21:53;21.27;;;20.08;;
76119;SDS011;64852;48.092;-1.640;2022-12-29T11:26:51;21.60;;;20.20;;
76119;SDS011;64852;48.092;-1.640;2022-12-29T11:29:26;20.27;;;19.10;;
76119;SDS011;64852;48.092;-1.640;2022-12-29T11:31:57;23.33;;;21.30;;
76119;SDS011;64852;48.092;-1.640;2022-12-29T11:37:05;19.65;;;18.55;;
76119;SDS011;64852;48.092;-1.640;2022-12-29T11:42:21;20.50;;;19.25;;
76119;SDS011;64852;48.092;-1.640;2022-12-29T11:45:04;19.75;;;18.02;;
76119;SDS011;64852;48.092;-1.640;2022-12-29T11:47:31;19.75;;;18.35;;
76119;SDS011;64852;48.092;-1.640;2022-12-29T11:50:03;18.70;;;17.60;;
76119;SDS011;64852;48.092;-1.640;2022-12-29T11:52:32;18.92;;;17.75;;
76119;SDS011;64852;48.092;-1.640;2022-12-29T11:55:01;17.80;;;16.80;;
76119;SDS011;64852;48.092;-1.640;2022-12-29T11:57:30;17.35;;;16.38;;
76119;SDS011;64852;48.092;-1.640;2022-12-29T11:59:58;19.08;;;17.88;;
76119;SDS011;64852;48.092;-1.640;2022-12-29T12:02:33;18.55;;;16.73;;
76119;SDS011;64852;48.092;-1.640;2022-12-29T12:05:22;18.85;;;17.42;;
76119;SDS011;64852;48.092;-1.640;2022-12-29T12:08:02;16.63;;;15.73;;
76119;SDS011;64852;48.092;-1.640;2022-12-29T12:10:39;17.33;;;16.23;;
76119;SDS011;64852;48.092;-1.640;2022-12-29T12:13:32;16.60;;;15.63;;
76119;SDS011;64852;48.092;-1.640;2022-12-29T12:16:16;15.45;;;14.45;;
76119;SDS011;64852;48.092;-1.640;2022-12-29T12:18:50;14.45;;;13.65;;
76119;SDS011;64852;48.092;-1.640;2022-12-29T12:27:00;14.00;;;13.00;;
76119;SDS011;64852;48.092;-1.640;2022-12-29T12:29:46;16.38;;;15.48;;
76119;SDS011;64852;48.092;-1.640;2022-12-29T12:35:10;14.30;;;13.50;;
76119;SDS011;64852;48.092;-1.640;2022-12-29T12:43:48;12.70;;;12.00;;
76119;SDS011;64852;48.092;-1.640;2022-12-29T12:51:56;12.38;;;11.68;;
76119;SDS011;64852;48.092;-1.640;2022-12-29T13:02:34;12.63;;;11.82;;
76119;SDS011;64852;48.092;-1.640;2022-12-29T13:05:23;13.35;;;12.55;;
76119;SDS011;64852;48.092;-1.640;2022-12-29T13:10:48;13.80;;;12.25;;
76119;SDS011;64852;48.092;-1.640;2022-12-29T13:16:17;12.60;;;11.90;;
76119;SDS011;64852;48.092;-1.640;2022-12-29T13:19:04;15.32;;;13.85;;
76119;SDS011;64852;48.092;-1.640;2022-12-29T13:24:46;40.20;;;36.83;;
76119;SDS011;64852;48.092;-1.640;2022-12-29T13:30:19;40.75;;;37.33;;
76119;SDS011;64852;48.092;-1.640;2022-12-29T13:41:13;37.42;;;34.83;;
76119;SDS011;64852;48.092;-1.640;2022-12-29T13:43:52;31.98;;;29.75;;
76119;SDS011;64852;48.092;-1.640;2022-12-29T13:46:22;30.40;;;28.30;;
76119;SDS011;64852;48.092;-1.640;2022-12-29T13:49:10;30.55;;;28.45;;
76119;SDS011;64852;48.092;-1.640;2022-12-29T13:51:47;28.95;;;26.95;;
76119;SDS011;64852;48.092;-1.640;2022-12-29T14:07:45;28.80;;;27.00;;
76119;SDS011;64852;48.092;-1.640;2022-12-29T14:10:34;26.20;;;24.60;;
76119;SDS011;64852;48.092;-1.640;2022-12-29T14:13:09;25.27;;;23.77;;
76119;SDS011;64852;48.092;-1.640;2022-12-29T14:15:39;24.10;;;22.60;;
76119;SDS011;64852;48.092;-1.640;2022-12-29T14:18:23;23.05;;;21.65;;
76119;SDS011;64852;48.092;-1.640;2022-12-29T14:23:41;22.15;;;20.75;;
76119;SDS011;64852;48.092;-1.640;2022-12-29T14:26:10;22.90;;;21.60;;
76119;SDS011;64852;48.092;-1.640;2022-12-29T14:28:55;23.27;;;21.23;;
76119;SDS011;64852;48.092;-1.640;2022-12-29T14:31:32;24.88;;;23.08;;
76119;SDS011;64852;48.092;-1.640;2022-12-29T14:39:04;21.23;;;20.02;;
76119;SDS011;64852;48.092;-1.640;2022-12-29T14:45:00;19.88;;;18.77;;
76119;SDS011;64852;48.092;-1.640;2022-12-29T14:47:48;21.17;;;20.00;;
76119;SDS011;64852;48.092;-1.640;2022-12-29T14:53:00;21.80;;;20.52;;
76119;SDS011;64852;48.092;-1.640;2022-12-29T14:55:47;21.75;;;20.52;;
76119;SDS011;64852;48.092;-1.640;2022-12-29T14:58:20;20.15;;;19.05;;
76119;SDS011;64852;48.092;-1.640;2022-12-29T15:00:50;20.50;;;19.40;;
76119;SDS011;64852;48.092;-1.640;2022-12-29T15:05:51;20.20;;;19.10;;
76119;SDS011;64852;48.092;-1.640;2022-12-29T15:08:19;20.05;;;18.95;;
76119;SDS011;64852;48.092;-1.640;2022-12-29T15:10:53;22.75;;;21.45;;
76119;SDS011;64852;48.092;-1.640;2022-12-29T15:13:46;19.93;;;18.83;;
76119;SDS011;64852;48.092;-1.640;2022-12-29T15:18:55;19.63;;;18.52;;
76119;SDS011;64852;48.092;-1.640;2022-12-29T15:21:24;20.63;;;19.33;;
76119;SDS011;64852;48.092;-1.640;2022-12-29T15:23:51;19.60;;;18.40;;
76119;SDS011;64852;48.092;-1.640;2022-12-29T15:26:18;19.73;;;18.45;;
76119;SDS011;64852;48.092;-1.640;2022-12-29T15:28:52;19.17;;;17.80;;
76119;SDS011;64852;48.092;-1.640;2022-12-29T15:31:20;17.38;;;16.48;;
76119;SDS011;64852;48.092;-1.640;2022-12-29T15:33:54;18.80;;;17.70;;
76119;SDS011;64852;48.092;-1.640;2022-12-29T15:36:28;18.38;;;17.38;;
76119;SDS011;64852;48.092;-1.640;2022-12-29T15:38:54;20.00;;;18.90;;
76119;SDS011;64852;48.092;-1.640;2022-12-29T15:46:30;18.13;;;17.13;;
76119;SDS011;64852;48.092;-1.640;2022-12-29T15:48:56;18.85;;;17.75;;
76119;SDS011;64852;48.092;-1.640;2022-12-29T15:51:28;17.42;;;16.42;;
76119;SDS011;64852;48.092;-1.640;2022-12-29T15:53:58;16.92;;;16.02;;
76119;SDS011;64852;48.092;-1.640;2022-12-29T15:56:24;18.08;;;17.10;;
76119;SDS011;64852;48.092;-1.640;2022-12-29T15:58:53;17.83;;;16.85;;
76119;SDS011;64852;48.092;-1.640;2022-12-29T16:01:27;16.88;;;15.98;;
76119;SDS011;64852;48.092;-1.640;2022-12-29T16:03:58;17.15;;;15.88;;
76119;SDS011;64852;48.092;-1.640;2022-12-29T16:06:27;17.05;;;16.15;;
76119;SDS011;64852;48.092;-1.640;2022-12-29T16:09:03;18.50;;;17.50;;
76119;SDS011;64852;48.092;-1.640;2022-12-29T16:14:00;18.77;;;17.65;;
76119;SDS011;64852;48.092;-1.640;2022-12-29T16:16:31;19.75;;;18.55;;
76119;SDS011;64852;48.092;-1.640;2022-12-29T16:19:06;18.92;;;17.92;;
76119;SDS011;64852;48.092;-1.640;2022-12-29T16:21:38;21.30;;;20.00;;
76119;SDS011;64852;48.092;-1.640;2022-12-29T16:24:08;20.83;;;19.63;;
76119;SDS011;64852;48.092;-1.640;2022-12-29T16:26:38;19.55;;;18.45;;
76119;SDS011;64852;48.092;-1.640;2022-12-29T16:29:11;19.25;;;18.15;;
76119;SDS011;64852;48.092;-1.640;2022-12-29T16:31:52;21.05;;;19.85;;
76119;SDS011;64852;48.092;-1.640;2022-12-29T16:37:01;22.63;;;21.20;;
76119;SDS011;64852;48.092;-1.640;2022-12-29T16:39:50;21.65;;;20.35;;
76119;SDS011;64852;48.092;-1.640;2022-12-29T16:47:48;21.73;;;20.25;;
76119;SDS011;64852;48.092;-1.640;2022-12-29T16:50:37;21.77;;;20.48;;
76119;SDS011;64852;48.092;-1.640;2022-12-29T16:53:05;20.27;;;19.10;;
76119;SDS011;64852;48.092;-1.640;2022-12-29T16:55:45;21.38;;;19.60;;
76119;SDS011;64852;48.092;-1.640;2022-12-29T16:58:14;21.60;;;20.30;;
76119;SDS011;64852;48.092;-1.640;2022-12-29T17:00:44;22.15;;;20.63;;
76119;SDS011;64852;48.092;-1.640;2022-12-29T17:03:11;21.50;;;20.20;;
76119;SDS011;64852;48.092;-1.640;2022-12-29T17:08:12;22.67;;;21.17;;
76119;SDS011;64852;48.092;-1.640;2022-12-29T17:10:47;23.65;;;22.15;;
76119;SDS011;64852;48.092;-1.640;2022-12-29T17:13:33;22.15;;;20.85;;
76119;SDS011;64852;48.092;-1.640;2022-12-29T17:16:00;21.75;;;20.35;;
76119;SDS011;64852;48.092;-1.640;2022-12-29T17:18:25;22.85;;;21.45;;
76119;SDS011;64852;48.092;-1.640;2022-12-29T17:20:51;22.40;;;21.05;;
76119;SDS011;64852;48.092;-1.640;2022-12-29T17:23:17;23.23;;;21.83;;
76119;SDS011;64852;48.092;-1.640;2022-12-29T17:25:43;23.45;;;22.05;;
76119;SDS011;64852;48.092;-1.640;2022-12-29T17:28:21;21.58;;;20.27;;
76119;SDS011;64852;48.092;-1.640;2022-12-29T17:30:57;21.65;;;20.35;;